Thunder radar more information blitzortung!


Radar de pluja more information rain snow radar


Visita la nostra xarxa de llocs de meteo:

Template documentation
and downloads

And another site



No particular awareness of the weather is required.    There are no Weather-warnings

Pagina Historial Weather Underground text

Diari Resum May 18, 2017 Unitats:  Mètric    Imperial   Tant
« Previous Dia
SegĂźent Dia »
Diari Setmana Mensual Anual Personalitzada
  Maxima: Minima: Media:
Temperatura: -17.8 °C -12.2 °C -7.8 °C
Punt de rosada: -17.8 °C -15.4 °C -12.3 °C
Humitat: Humidity % 40 % 60 %
Wind Speed: 0 km/h 0 km/h 11.1 km/h
RĂ fegues de vent: 0 km/h - -
Vent:- - SSW
Pression baro: 0 hPa 34222.3 hPa -
Precipitacions: 33.02 mm    
Historical Graphs
 
 
Dades de taula per May 18, 2017
Temps Temperatura Punt de rosada Pression baro Vent Wind Speed RĂ fegues de vent Humitat Rainfall Rate (Hourly)
-17.8 °C -17.8 °C 0 hPa Calm     Humidity % 0 mm
00:03 -7.5 °C -13.9 °C 34395 hPa SW 3.1 km/h 3.1 km/h 47 % 0 mm
00:05 -10 °C -13.7 °C 34361.1 hPa Calm   2.6 km/h 64 % 0 mm
00:08 -7.5 °C -13.9 °C 34395 hPa SW 3.1 km/h   47 % 0 mm
00:13 -7.6 °C -13.8 °C 34395 hPa Calm     48 % 0 mm
00:15 -10.2 °C -13.9 °C 34327.3 hPa Calm   2.6 km/h 64 % 0 mm
00:18 -7.6 °C -13.8 °C 34395 hPa Calm     48 % 0 mm
00:23 -7.7 °C -13.7 °C 34395 hPa SW 3.1 km/h   49 % 0 mm
00:25 -10.2 °C -13.9 °C 34361.1 hPa Calm     64 % 0 mm
00:28 -7.7 °C -13.8 °C 34395 hPa Calm     49 % 0 mm
00:33 -7.8 °C -13.7 °C 34395 hPa Calm     50 % 0 mm
00:35 -10.3 °C -14 °C 34361.1 hPa Calm     64 % 0 mm
00:38 -7.8 °C -13.7 °C 34395 hPa Calm     50 % 0 mm
00:45 -10.3 °C -14 °C 34361.1 hPa Calm     64 % 0 mm
00:55 -10.3 °C -13.8 °C 34361.1 hPa Calm     65 % 0 mm
01:05 -10.2 °C -13.9 °C 34361.1 hPa SW 2.6 km/h 5.1 km/h 64 % 0 mm
01:15 -10.2 °C -13.9 °C 34361.1 hPa WSW 2.6 km/h 5.1 km/h 64 % 0 mm
01:25 -10.4 °C -14.1 °C 34361.1 hPa SW 2.6 km/h 5.1 km/h 64 % 0 mm
01:35 -10.5 °C -14.1 °C 34361.1 hPa Calm   2.6 km/h 65 % 0 mm
01:45 -10.6 °C -14 °C 34361.1 hPa Calm   5.1 km/h 66 % 0 mm
01:55 -10.6 °C -14 °C 34361.1 hPa Calm   5.1 km/h 66 % 0 mm
02:05 -10.4 °C -13.9 °C 34361.1 hPa SSE 2.6 km/h 5.1 km/h 66 % 0 mm
02:15 -10.2 °C -13.7 °C 34361.1 hPa Calm   2.6 km/h 66 % 0 mm
02:25 -10.1 °C -13.7 °C 34361.1 hPa SSW 5.1 km/h 5.1 km/h 65 % 0 mm
02:35 -10 °C -13.7 °C 34361.1 hPa SW 5.1 km/h 5.1 km/h 64 % 0 mm
02:55 -9.7 °C -13.4 °C 34361.1 hPa SW 5.1 km/h 5.1 km/h 64 % 0 mm
03:05 -9.6 °C -13.4 °C 34361.1 hPa Calm   5.1 km/h 64 % 0 mm
03:15 -9.4 °C -13.3 °C 34361.1 hPa SW 2.6 km/h 5.1 km/h 63 % 0 mm
03:25 -8.8 °C -13 °C 34361.1 hPa SW 5.1 km/h 7.7 km/h 61 % 0 mm
03:35 -8.6 °C -12.9 °C 34361.1 hPa ENE 5.1 km/h 7.7 km/h 60 % 0 mm
03:45 -8.2 °C -12.8 °C 34361.1 hPa NE 2.6 km/h 7.7 km/h 58 % 0 mm
03:55 -7.9 °C -12.8 °C 34361.1 hPa NE 5.1 km/h 7.7 km/h 56 % 0 mm
04:05 -7.5 °C -12.6 °C 34361.1 hPa NE 2.6 km/h 7.7 km/h 55 % 0 mm
04:15 -7.5 °C -12.8 °C 34395 hPa Calm   7.7 km/h 54 % 0 mm
04:25 -7.7 °C -12.9 °C 34395 hPa NE 5.1 km/h 7.7 km/h 54 % 0 mm
04:35 -7.7 °C -12.9 °C 34395 hPa NE 2.6 km/h 5.1 km/h 54 % 0 mm
04:45 -7.3 °C -12.6 °C 34361.1 hPa ENE 7.7 km/h 10.3 km/h 54 % 0 mm
04:55 -7.2 °C -12.7 °C 34395 hPa NE 7.7 km/h 10.3 km/h 53 % 0 mm
05:10 -6.7 °C -12.2 °C 34395 hPa ENE 7.7 km/h 12.9 km/h 53 % 0 mm
05:20 -6.6 °C -12.1 °C 34395 hPa ENE 12.9 km/h 15.6 km/h 53 % 0 mm
05:30 -6.6 °C -12.1 °C 34361.1 hPa ENE 15.6 km/h 15.6 km/h 53 % 0 mm
05:40 -6.6 °C -12.1 °C 34361.1 hPa ESE 12.9 km/h 12.9 km/h 53 % 0 mm
10:44 -6.5 °C -11.8 °C 34361.1 hPa East 9 km/h 10.3 km/h 54 % 0 mm
10:45 -6.5 °C -11.8 °C 34361.1 hPa East 9 km/h 10.3 km/h 54 % 0 mm
10:46 -6.4 °C -11.9 °C 34361.1 hPa ENE 15 km/h 15 km/h 53 % 0 mm
10:51 -6.3 °C -11.7 °C 34361.1 hPa ESE 16.1 km/h 16.1 km/h 54 % 0 mm
10:56 -6.2 °C -11.6 °C 34361.1 hPa East 12.2 km/h 12.2 km/h 54 % 0 mm
11:01 -6.1 °C -11.4 °C 34361.1 hPa SE 17.9 km/h 17.9 km/h 54 % 0 mm
11:06 -5.7 °C -11.3 °C 34361.1 hPa SE 15 km/h 15 km/h 53 % 0 mm
11:11 -5.7 °C -11.2 °C 34361.1 hPa ESE 15 km/h 15 km/h 53 % 0 mm
11:12 -5.7 °C -11.2 °C 34361.1 hPa SE 14.5 km/h 14.5 km/h 53 % 0 mm
11:17 -5.7 °C -11.1 °C 34361.1 hPa WSW 12.2 km/h 12.2 km/h 54 % 0 mm
11:22 -5.5 °C -11.1 °C 34361.1 hPa NNE 12.7 km/h 12.7 km/h 53 % 0 mm
11:27 -5.6 °C -11.1 °C 34361.1 hPa East 15 km/h 15 km/h 53 % 0 mm
11:32 -5.6 °C -11.1 °C 34361.1 hPa SSE 11.9 km/h 11.9 km/h 53 % 0 mm
11:37 -5.3 °C -10.9 °C 34361.1 hPa SE 15 km/h 15 km/h 53 % 0 mm
11:42 -5.3 °C -10.9 °C 34327.3 hPa ENE 20.9 km/h 20.9 km/h 53 % 0 mm
11:47 -5.2 °C -10.8 °C 34327.3 hPa ENE 15.3 km/h 15.3 km/h 53 % 0 mm
11:52 -5.3 °C -10.9 °C 34327.3 hPa ESE 15 km/h 15 km/h 53 % 0 mm
11:57 -5.1 °C -10.7 °C 34361.1 hPa SSE 17.9 km/h 17.9 km/h 53 % 0 mm
12:02 -5.1 °C -10.7 °C 34361.1 hPa ENE 20.9 km/h 20.9 km/h 53 % 0 mm
12:07 -5.3 °C -11 °C 34361.1 hPa ESE 15 km/h 15.3 km/h 52 % 0 mm
12:12 -5.1 °C -10.9 °C 34327.3 hPa ESE 17.9 km/h 17.9 km/h 52 % 0 mm
12:15 -5 °C -10.9 °C 34327.3 hPa SE 20.9 km/h 20.9 km/h 51 % 0 mm
12:20 -5.1 °C -10.8 °C 34327.3 hPa ESE 15.3 km/h 15.3 km/h 52 % 0 mm
12:25 -5.1 °C -10.9 °C 34327.3 hPa East 15.3 km/h 15.3 km/h 52 % 0 mm
12:30 -4.9 °C -11.2 °C 34327.3 hPa ENE 15 km/h 15 km/h 49 % 0 mm
12:35 -4.9 °C -11.6 °C 34327.3 hPa ESE 32.8 km/h 32.8 km/h 47 % 0 mm
12:40 -4.8 °C -11.3 °C 34327.3 hPa ENE 19.2 km/h 19.2 km/h 48 % 0 mm
12:45 -4.8 °C -11.6 °C 34327.3 hPa SE 25.4 km/h 25.4 km/h 46 % 0 mm
12:50 -4.4 °C -11.5 °C 34327.3 hPa SSE 15 km/h 15 km/h 45 % 0 mm
12:55 -4.6 °C -11.4 °C 34293.4 hPa North 20.9 km/h 20.9 km/h 46 % 0 mm
13:00 -4.7 °C -11.5 °C 34293.4 hPa ESE 32.8 km/h 32.8 km/h 46 % 0 mm
13:05 -4.7 °C -11.9 °C 34293.4 hPa NE 26.9 km/h 26.9 km/h 44 % 0 mm
13:10 -4.6 °C -11.6 °C 34256.2 hPa North 16.1 km/h 16.1 km/h 45 % 0 mm
13:15 -4.4 °C -11.4 °C 34256.2 hPa SE 25.9 km/h 25.9 km/h 45 % 0 mm
13:20 -4.4 °C -11.5 °C 34256.2 hPa ENE 29.8 km/h 29.8 km/h 45 % 0 mm
13:25 -4.3 °C -11.6 °C 34222.3 hPa East 17.9 km/h 17.9 km/h 44 % 0 mm
13:30 -4.3 °C -11.7 °C 34222.3 hPa SSW 17.9 km/h 17.9 km/h 43 % 0 mm
13:35 -4.3 °C -11.6 °C 34222.3 hPa North 29.8 km/h 29.8 km/h 44 % 0 mm
13:40 -4.4 °C -11.4 °C 34256.2 hPa NNE 15 km/h 15 km/h 45 % 0 mm
13:45 -4.3 °C -11.3 °C 34256.2 hPa ENE 22 km/h 22 km/h 45 % 0 mm
13:50 -4.5 °C -11.3 °C 34256.2 hPa NE 15 km/h 15 km/h 46 % 0 mm
13:55 -4.6 °C -11.4 °C 34256.2 hPa ESE 20.9 km/h 20.9 km/h 46 % 0 mm
14:00 -4.7 °C -11.5 °C 34256.2 hPa East 17.9 km/h 17.9 km/h 46 % 0 mm
14:05 -4.7 °C -11.6 °C 34256.2 hPa East 25.4 km/h 25.4 km/h 46 % 0 mm
14:10 -4.4 °C -11.3 °C 34256.2 hPa ENE 20.9 km/h 20.9 km/h 46 % 0 mm
14:15 -4.6 °C -11.3 °C 34256.2 hPa NE 23.8 km/h 23.8 km/h 47 % 0 mm
14:20 -4.6 °C -11.3 °C 34256.2 hPa ENE 17.9 km/h 17.9 km/h 47 % 0 mm
14:25 -4.7 °C -11.2 °C 34222.3 hPa ESE 12.7 km/h 12.7 km/h 48 % 0 mm
14:30 -4.3 °C -10.7 °C 34222.3 hPa WNW 20.9 km/h 20.9 km/h 49 % 0 mm
14:35 -4.3 °C -10.7 °C 34222.3 hPa ESE 20.9 km/h 20.9 km/h 49 % 0 mm
14:40 -4.3 °C -10.6 °C 34256.2 hPa ESE 16.6 km/h 16.6 km/h 49 % 0 mm
14:45 -4.3 °C -10.7 °C 34256.2 hPa ESE 17.9 km/h 17.9 km/h 49 % 0 mm
14:50 -4.3 °C -10.6 °C 34256.2 hPa SE 15 km/h 15 km/h 49 % 0 mm
14:55 -4 °C -10.5 °C 34256.2 hPa SW 9 km/h 9 km/h 48 % 0 mm
15:00 -3.6 °C -10.9 °C 34256.2 hPa SSW 12.7 km/h 12.7 km/h 44 % 0 mm
15:05 -3.5 °C -10.8 °C 34256.2 hPa SW 9 km/h 9 km/h 44 % 0 mm
15:10 -3.2 °C -10.8 °C 34256.2 hPa SW 17.9 km/h 17.9 km/h 43 % 0 mm
15:15 -3.2 °C -10.9 °C 34256.2 hPa WNW 15 km/h 15 km/h 42 % 0 mm
15:20 -3.1 °C -10.8 °C 34256.2 hPa SSW 15.3 km/h 15.3 km/h 42 % 0 mm
15:25 -3.3 °C -11.3 °C 34222.3 hPa South 26.9 km/h 26.9 km/h 41 % 0 mm
15:30 -3.3 °C -11.3 °C 34222.3 hPa SW 23.8 km/h 23.8 km/h 41 % 0 mm
15:35 -3.3 °C -11.5 °C 34222.3 hPa SSW 23.8 km/h 23.8 km/h 40 % 0 mm
15:40 -3.4 °C -11.6 °C 34222.3 hPa SE 15 km/h 15 km/h 40 % 0 mm
15:45 -3.4 °C -11.3 °C 34222.3 hPa SW 11.9 km/h 11.9 km/h 41 % 0 mm
15:50 -3.3 °C -11.3 °C 34222.3 hPa WSW 9 km/h 9 km/h 41 % 0 mm
15:55 -3.3 °C -11.5 °C 34222.3 hPa SSW 26.9 km/h 26.9 km/h 40 % 0 mm
15:57 -3.7 °C -11.8 °C 34222.3 hPa SW 23.8 km/h 23.8 km/h 40 % 0 mm
16:02 -3.7 °C -11.6 °C 34222.3 hPa SW 17.9 km/h 17.9 km/h 41 % 0 mm
16:07 -3.9 °C -12 °C 34222.3 hPa SW 9 km/h 9 km/h 40 % 0 mm
16:12 -3.9 °C -12 °C 34222.3 hPa SSW 27.2 km/h 27.2 km/h 40 % 0 mm
16:17 -4 °C -11.8 °C 34222.3 hPa SSW 17.9 km/h 17.9 km/h 41 % 0 mm
16:22 -4.2 °C -12 °C 34222.3 hPa WNW 23.8 km/h 23.8 km/h 41 % 0 mm
16:27 -4.9 °C -12.1 °C 34256.2 hPa WNW 32.8 km/h 32.8 km/h 44 % 0 mm
16:32 -5.2 °C -12 °C 34256.2 hPa SSW 23.8 km/h 23.8 km/h 46 % 0 mm
16:37 -5.4 °C -12 °C 34256.2 hPa WNW 23.8 km/h 23.8 km/h 47 % 0 mm
16:42 -5.6 °C -12 °C 34256.2 hPa NNW 32.8 km/h 32.8 km/h 48 % 0 mm
16:47 -5.9 °C -12.1 °C 34256.2 hPa West 35.7 km/h 35.7 km/h 49 % 0 mm
16:52 -6.4 °C -11.9 °C 34256.2 hPa East 32.8 km/h 32.8 km/h 53 % 0 mm
16:57 -6.9 °C -11.8 °C 34256.2 hPa West 15 km/h 15 km/h 57 % 0 mm
17:02 -7.2 °C -11.7 °C 34256.2 hPa WSW 15 km/h 15 km/h 59 % 0 mm
17:07 -7.4 °C -11.6 °C 34256.2 hPa WSW 17.9 km/h 17.9 km/h 62 % 0 mm
17:12 -7.5 °C -11.6 °C 34256.2 hPa WSW 11.9 km/h 11.9 km/h 62 % 0 mm
17:17 -7.4 °C -11.5 °C 34256.2 hPa West 26.9 km/h 26.9 km/h 62 % 0 mm
17:22 -7.4 °C -11.4 °C 34256.2 hPa WSW 20.9 km/h 20.9 km/h 63 % 0 mm
17:27 -7.5 °C -11.6 °C 34256.2 hPa West 17.9 km/h 17.9 km/h 62 % 0 mm
17:32 -7.6 °C -11.6 °C 34256.2 hPa WSW 15 km/h 15 km/h 63 % 0 mm
17:37 -7.7 °C -11.7 °C 34256.2 hPa West 15 km/h 15 km/h 63 % 0 mm
17:42 -7.8 °C -11.8 °C 34256.2 hPa WSW 15 km/h 15 km/h 63 % 0 mm
17:47 -8 °C -12 °C 34256.2 hPa SW 11.9 km/h 11.9 km/h 63 % 0 mm
17:52 -8.2 °C -12.1 °C 34256.2 hPa SW 20.9 km/h 20.9 km/h 64 % 0 mm
17:57 -8.2 °C -11.9 °C 34256.2 hPa WSW 15 km/h 15 km/h 65 % 0 mm
18:02 -8.2 °C -11.7 °C 34256.2 hPa WSW 11.9 km/h 11.9 km/h 67 % 0 mm
18:07 -8.3 °C -11.8 °C 34256.2 hPa WSW 11.9 km/h 11.9 km/h 67 % 0 mm
18:12 -8.3 °C -11.6 °C 34256.2 hPa WSW 15 km/h 15 km/h 68 % 0 mm
18:17 -8.3 °C -11.6 °C 34256.2 hPa SW 11.9 km/h 11.9 km/h 68 % 0 mm
18:22 -8.3 °C -11.6 °C 34256.2 hPa West 15 km/h 15 km/h 68 % 0 mm
18:27 -8.4 °C -11.4 °C 34256.2 hPa SW 9 km/h 9 km/h 70 % 0 mm
18:32 -8.4 °C -11.4 °C 34256.2 hPa West 8 km/h 8 km/h 71 % 0 mm
18:37 -8.5 °C -11.6 °C 34256.2 hPa SW 14.5 km/h 14.5 km/h 70 % 0 mm
18:42 -8.5 °C -11.4 °C 34293.4 hPa SW 7.6 km/h 7.6 km/h 71 % 0 mm
18:47 -8.6 °C -11.5 °C 34293.4 hPa SW 9.8 km/h 9.8 km/h 71 % 0 mm
18:52 -8.6 °C -11.5 °C 34293.4 hPa SW 9 km/h 9 km/h 71 % 0 mm
18:57 -8.5 °C -11.4 °C 34293.4 hPa WSW 11.9 km/h 11.9 km/h 71 % 0 mm
19:02 -8.4 °C -11.2 °C 34293.4 hPa SW 3.1 km/h 3.1 km/h 73 % 0 mm
19:07 -8.4 °C -11.2 °C 34293.4 hPa WSW 9 km/h 9 km/h 72 % 0 mm
19:12 -8.4 °C -11.2 °C 34327.3 hPa SW 6.3 km/h 6.3 km/h 72 % 0 mm
19:17 -8.4 °C -11.5 °C 34327.3 hPa WNW 9 km/h 9 km/h 70 % 0 mm
19:20 -10.6 °C -13.7 °C 34395 hPa West 7.7 km/h 12.9 km/h 69 % 33.02 mm
19:22 -8.4 °C -11.3 °C 34327.3 hPa West 6 km/h 6 km/h 71 % 0 mm
19:27 -8.3 °C -11.4 °C 34293.4 hPa West 6 km/h 6 km/h 70 % 0 mm
19:30 -10.7 °C -13.8 °C 34395 hPa West 5.1 km/h 5.1 km/h 69 % 33.02 mm
19:32 -8.3 °C -11.4 °C 34293.4 hPa WSW 6 km/h 6 km/h 70 % 0 mm
19:37 -8.3 °C -11.3 °C 34293.4 hPa SW 4.2 km/h   71 % 0 mm
19:40 -10.8 °C -13.8 °C 34395 hPa Calm   7.7 km/h 69 % 0 mm
19:42 -8.4 °C -11.1 °C 34293.4 hPa SW 6 km/h 6 km/h 73 % 0 mm
19:47 -8.5 °C -11.3 °C 34293.4 hPa WSW 6 km/h 6 km/h 72 % 0 mm
19:50 -10.8 °C -14 °C 34395 hPa West 2.6 km/h 5.1 km/h 68 % 0 mm
19:52 -8.5 °C -11.1 °C 34293.4 hPa NW 4.2 km/h 4.2 km/h 74 % 0 mm
19:57 -8.6 °C -11.2 °C 34293.4 hPa Calm     74 % 0 mm
20:00 -10.9 °C -14.1 °C 34395 hPa West 7.7 km/h 7.7 km/h 68 % 0 mm
20:02 -8.6 °C -11.2 °C 34293.4 hPa North 9 km/h 9 km/h 74 % 0 mm
20:07 -8.6 °C -11 °C 34293.4 hPa East 3.1 km/h   75 % 0 mm
20:10 -11 °C -14.2 °C 34428.8 hPa West 5.1 km/h 7.7 km/h 68 % 0 mm
20:12 -8.6 °C -11.2 °C 34256.2 hPa NNE 6 km/h   74 % 0 mm
20:13 -8.6 °C -11 °C 34256.2 hPa North 6 km/h 6 km/h 75 % 0 mm
20:18 -8.6 °C -11.1 °C 34256.2 hPa West 6 km/h 6 km/h 75 % 0 mm
20:20 -11.1 °C -14.3 °C 34428.8 hPa WSW 2.6 km/h 7.7 km/h 67 % 0 mm
20:23 -8.6 °C -10.9 °C 34256.2 hPa WSW 5.6 km/h   76 % 0 mm
20:28 -8.7 °C -10.9 °C 34256.2 hPa SW 3.1 km/h   77 % 0 mm
20:30 -11.1 °C -14.4 °C 34428.8 hPa Calm   5.1 km/h 67 % 0 mm
20:33 -8.8 °C -11.2 °C 34256.2 hPa WSW 7.6 km/h 7.6 km/h 76 % 0 mm
20:38 -8.9 °C -11.3 °C 34327.3 hPa WSW 7.6 km/h 7.6 km/h 76 % 0 mm
20:40 -11.2 °C -14.5 °C 34428.8 hPa WSW 5.1 km/h 7.7 km/h 67 % 0 mm
20:43 -9 °C -11.3 °C 34327.3 hPa SW 6.8 km/h 6.8 km/h 76 % 0 mm
20:48 -9 °C -11.2 °C 34327.3 hPa WSW 6 km/h 6 km/h 77 % 0 mm
20:50 -11.4 °C -14.6 °C 34428.8 hPa WSW 5.1 km/h 7.7 km/h 68 % 0 mm
20:53 -9 °C -11.2 °C 34327.3 hPa West 6 km/h 6 km/h 77 % 0 mm
20:58 -8.9 °C -11.2 °C 34327.3 hPa West 6 km/h 6 km/h 77 % 0 mm
21:00 -11.4 °C -14.7 °C 34428.8 hPa WSW 5.1 km/h 7.7 km/h 67 % 0 mm
21:03 -8.9 °C -11.1 °C 34327.3 hPa SSW 6 km/h 6 km/h 78 % 0 mm
21:08 -8.9 °C -11.1 °C 34327.3 hPa WSW 9 km/h 9 km/h 78 % 0 mm
21:10 -11.4 °C -14.6 °C 34428.8 hPa Calm   5.1 km/h 68 % 0 mm
21:13 -9 °C -11.2 °C 34327.3 hPa SW 11.9 km/h 11.9 km/h 77 % 0 mm
21:18 -9.1 °C -11.4 °C 34327.3 hPa WSW 15 km/h 15 km/h 76 % 0 mm
21:20 -11.6 °C -14.7 °C 34428.8 hPa WSW 2.6 km/h 5.1 km/h 68 % 0 mm
21:23 -9.1 °C -11.4 °C 34327.3 hPa West 9 km/h 9 km/h 76 % 0 mm
21:28 -9.1 °C -11.4 °C 34327.3 hPa NW 11.9 km/h 11.9 km/h 76 % 0 mm
21:30 -11.7 °C -15 °C 34395 hPa WSW 7.7 km/h 7.7 km/h 67 % 0 mm
21:33 -9.2 °C -11.5 °C 34327.3 hPa WSW 15.6 km/h 15.6 km/h 76 % 0 mm
21:38 -9.2 °C -11.6 °C 34327.3 hPa WSW 14.5 km/h 14.5 km/h 76 % 0 mm
21:40 -11.8 °C -14.9 °C 34395 hPa WSW 5.1 km/h 7.7 km/h 68 % 0 mm
21:43 -9.3 °C -11.6 °C 34327.3 hPa WSW 11.9 km/h 11.9 km/h 76 % 0 mm
21:48 -9.3 °C -11.8 °C 34327.3 hPa WSW 15 km/h 15 km/h 75 % 0 mm
21:53 -9.4 °C -11.8 °C 34327.3 hPa SW 25.1 km/h 25.1 km/h 76 % 0 mm
21:58 -9.5 °C -11.9 °C 34327.3 hPa WSW 14 km/h 14 km/h 75 % 33.02 mm
22:00 -11.8 °C -15.1 °C 34428.8 hPa West 2.6 km/h 10.3 km/h 67 % 0 mm
22:03 -9.6 °C -12.1 °C 34327.3 hPa West 17.9 km/h 17.9 km/h 75 % 33.02 mm
22:08 -9.7 °C -12 °C 34327.3 hPa SW 9.3 km/h 9.3 km/h 76 % 33.02 mm
22:10 -11.9 °C -15.1 °C 34428.8 hPa WSW 2.6 km/h 5.1 km/h 68 % 0 mm
22:13 -9.7 °C -12.1 °C 34327.3 hPa SW 8 km/h 8 km/h 76 % 33.02 mm
22:18 -9.8 °C -12.2 °C 34327.3 hPa WSW 12.2 km/h 12.2 km/h 75 % 33.02 mm
22:20 -11.9 °C -15.1 °C 34428.8 hPa Calm   5.1 km/h 68 % 0 mm
22:23 -9.8 °C -12.3 °C 34327.3 hPa West 9 km/h 9 km/h 75 % 33.02 mm
22:28 -9.9 °C -12.3 °C 34327.3 hPa WSW 11.9 km/h 11.9 km/h 75 % 33.02 mm
22:30 -12.1 °C -15.2 °C 34462.7 hPa ENE 5.1 km/h 7.7 km/h 68 % 0 mm
22:33 -9.9 °C -12.3 °C 34327.3 hPa WSW 11.9 km/h 11.9 km/h 75 % 33.02 mm
22:38 -9.9 °C -12.3 °C 34361.1 hPa SW 11.9 km/h 11.9 km/h 76 % 33.02 mm
22:40 -12.1 °C -15.2 °C 34462.7 hPa WSW 5.1 km/h 7.7 km/h 68 % 0 mm
22:43 -10 °C -12.4 °C 34361.1 hPa WSW 6.3 km/h 6.3 km/h 75 % 33.02 mm
22:48 -10.1 °C -12.4 °C 34361.1 hPa NW 9 km/h 9 km/h 75 % 33.02 mm
22:50 -12.1 °C -15.2 °C 34462.7 hPa Calm   7.7 km/h 68 % 0 mm
22:53 -10.1 °C -12.4 °C 34395 hPa West 6 km/h 6.3 km/h 75 % 33.02 mm
22:58 -10.1 °C -12.6 °C 34395 hPa West 9 km/h 9 km/h 74 % 0 mm
23:00 -12.1 °C -15.2 °C 34462.7 hPa WSW 2.6 km/h 5.1 km/h 68 % 0 mm
23:03 -10.1 °C -12.7 °C 34395 hPa NNW 6 km/h 6 km/h 74 % 0 mm
23:09 -10.1 °C -12.7 °C 34395 hPa WNW 9 km/h 9 km/h 74 % 0 mm
23:10 -12.1 °C -15.2 °C 34462.7 hPa West 2.6 km/h 5.1 km/h 68 % 0 mm
23:14 -10.2 °C -12.8 °C 34395 hPa SW 15 km/h 15 km/h 73 % 0 mm
23:19 -10.2 °C -12.8 °C 34395 hPa West 9 km/h 9 km/h 73 % 0 mm
23:20 -12.2 °C -15.4 °C 34462.7 hPa SW 2.6 km/h 5.1 km/h 68 % 0 mm
23:24 -10.2 °C -12.9 °C 34395 hPa WSW 11.1 km/h 11.1 km/h 72 % 0 mm
23:29 -10.3 °C -13 °C 34395 hPa WNW 9 km/h 9 km/h 72 % 0 mm
23:30 -12.2 °C -15.4 °C 34496.6 hPa SW 5.1 km/h 5.1 km/h 68 % 0 mm
23:34 -10.3 °C -13.1 °C 34395 hPa West 6 km/h 6 km/h 72 % 0 mm
23:39 -10.4 °C -13.2 °C 34395 hPa SW 6 km/h 6 km/h 72 % 0 mm
23:40 -12.2 °C -15.2 °C 34428.8 hPa Calm   5.1 km/h 69 % 0 mm
23:44 -10.4 °C -13.3 °C 34395 hPa WSW 11.9 km/h 11.9 km/h 71 % 0 mm
23:49 -10.4 °C -13.3 °C 34395 hPa West 6 km/h 6 km/h 71 % 0 mm
23:50 -12.2 °C -15.2 °C 34428.8 hPa NNW 5.1 km/h 7.7 km/h 69 % 0 mm
23:54 -10.5 °C -13.5 °C 34395 hPa SW 6 km/h 6 km/h 70 % 0 mm
23:59 -10.6 °C -13.4 °C 34395 hPa West 5.1 km/h   71 % 0 mm
Meteo Sesrovires
Elogis d' Weather Underground - 3.75 mb

Guio original per  Jim McMurry - jmcmurry@mwt.net Adaptat per a la plantilla per  Wim van der Kuil - Leuven-Template.eu

Trobareu la nostra informacio del temps tambe a:

Weather Underground

AWEKAS